sensor_id;sensor_type;location;lat;lon;timestamp;P1;durP1;ratioP1;P2;durP2;ratioP2
20454;SDS011;10386;54.314;10.022;2023-11-21T00:01:23;12.00;;;5.63;;
20454;SDS011;10386;54.314;10.022;2023-11-21T00:03:50;10.17;;;5.40;;
20454;SDS011;10386;54.314;10.022;2023-11-21T00:06:21;6.80;;;5.00;;
20454;SDS011;10386;54.314;10.022;2023-11-21T00:08:47;8.30;;;5.13;;
20454;SDS011;10386;54.314;10.022;2023-11-21T00:11:14;9.33;;;5.50;;
20454;SDS011;10386;54.314;10.022;2023-11-21T00:13:41;9.20;;;4.37;;
20454;SDS011;10386;54.314;10.022;2023-11-21T00:16:08;8.03;;;4.53;;
20454;SDS011;10386;54.314;10.022;2023-11-21T00:18:35;9.03;;;5.03;;
20454;SDS011;10386;54.314;10.022;2023-11-21T00:21:02;7.17;;;4.77;;
20454;SDS011;10386;54.314;10.022;2023-11-21T00:23:29;8.23;;;5.00;;
20454;SDS011;10386;54.314;10.022;2023-11-21T00:25:56;7.37;;;4.77;;
20454;SDS011;10386;54.314;10.022;2023-11-21T00:28:23;7.80;;;5.20;;
20454;SDS011;10386;54.314;10.022;2023-11-21T00:30:51;7.63;;;5.13;;
20454;SDS011;10386;54.314;10.022;2023-11-21T00:33:18;7.53;;;5.40;;
20454;SDS011;10386;54.314;10.022;2023-11-21T00:35:46;13.60;;;6.30;;
20454;SDS011;10386;54.314;10.022;2023-11-21T00:38:13;10.70;;;5.83;;
20454;SDS011;10386;54.314;10.022;2023-11-21T00:40:39;7.83;;;5.17;;
20454;SDS011;10386;54.314;10.022;2023-11-21T00:43:06;12.63;;;5.83;;
20454;SDS011;10386;54.314;10.022;2023-11-21T00:45:33;9.10;;;5.57;;
20454;SDS011;10386;54.314;10.022;2023-11-21T00:48:03;11.63;;;6.13;;
20454;SDS011;10386;54.314;10.022;2023-11-21T00:50:31;13.33;;;5.77;;
20454;SDS011;10386;54.314;10.022;2023-11-21T00:52:58;10.10;;;6.27;;
20454;SDS011;10386;54.314;10.022;2023-11-21T00:55:25;9.57;;;6.23;;
20454;SDS011;10386;54.314;10.022;2023-11-21T00:57:53;10.80;;;5.50;;
20454;SDS011;10386;54.314;10.022;2023-11-21T01:00:19;10.77;;;6.20;;
20454;SDS011;10386;54.314;10.022;2023-11-21T01:02:46;10.47;;;6.10;;
20454;SDS011;10386;54.314;10.022;2023-11-21T01:05:14;10.17;;;6.33;;
20454;SDS011;10386;54.314;10.022;2023-11-21T01:07:41;10.20;;;6.00;;
20454;SDS011;10386;54.314;10.022;2023-11-21T01:10:08;13.13;;;6.47;;
20454;SDS011;10386;54.314;10.022;2023-11-21T01:12:36;11.93;;;6.23;;
20454;SDS011;10386;54.314;10.022;2023-11-21T01:15:04;10.87;;;5.83;;
20454;SDS011;10386;54.314;10.022;2023-11-21T01:17:34;8.90;;;5.73;;
20454;SDS011;10386;54.314;10.022;2023-11-21T01:20:02;8.87;;;5.90;;
20454;SDS011;10386;54.314;10.022;2023-11-21T01:22:32;11.33;;;6.50;;
20454;SDS011;10386;54.314;10.022;2023-11-21T01:24:59;12.53;;;6.47;;
20454;SDS011;10386;54.314;10.022;2023-11-21T01:27:26;11.80;;;6.50;;
20454;SDS011;10386;54.314;10.022;2023-11-21T01:29:53;10.67;;;7.07;;
20454;SDS011;10386;54.314;10.022;2023-11-21T01:32:20;9.67;;;5.97;;
20454;SDS011;10386;54.314;10.022;2023-11-21T01:34:47;14.20;;;6.17;;
20454;SDS011;10386;54.314;10.022;2023-11-21T01:37:14;11.23;;;6.47;;
20454;SDS011;10386;54.314;10.022;2023-11-21T01:39:41;13.83;;;7.10;;
20454;SDS011;10386;54.314;10.022;2023-11-21T01:42:08;11.03;;;6.60;;
20454;SDS011;10386;54.314;10.022;2023-11-21T01:44:34;14.37;;;7.37;;
20454;SDS011;10386;54.314;10.022;2023-11-21T01:47:02;13.00;;;6.80;;
20454;SDS011;10386;54.314;10.022;2023-11-21T01:49:34;16.20;;;6.40;;
20454;SDS011;10386;54.314;10.022;2023-11-21T01:52:02;15.53;;;6.17;;
20454;SDS011;10386;54.314;10.022;2023-11-21T01:54:30;13.57;;;6.87;;
20454;SDS011;10386;54.314;10.022;2023-11-21T01:56:58;14.03;;;7.00;;
20454;SDS011;10386;54.314;10.022;2023-11-21T01:59:36;13.90;;;6.70;;
20454;SDS011;10386;54.314;10.022;2023-11-21T02:02:06;12.17;;;6.70;;
20454;SDS011;10386;54.314;10.022;2023-11-21T02:04:34;9.87;;;7.10;;
20454;SDS011;10386;54.314;10.022;2023-11-21T02:07:01;12.47;;;7.20;;
20454;SDS011;10386;54.314;10.022;2023-11-21T02:09:31;11.23;;;7.03;;
20454;SDS011;10386;54.314;10.022;2023-11-21T02:12:00;10.57;;;6.23;;
20454;SDS011;10386;54.314;10.022;2023-11-21T02:14:29;10.67;;;5.87;;
20454;SDS011;10386;54.314;10.022;2023-11-21T02:16:57;13.27;;;6.57;;
20454;SDS011;10386;54.314;10.022;2023-11-21T02:19:24;10.40;;;6.33;;
20454;SDS011;10386;54.314;10.022;2023-11-21T02:21:56;9.97;;;6.10;;
20454;SDS011;10386;54.314;10.022;2023-11-21T02:24:33;11.83;;;6.00;;
20454;SDS011;10386;54.314;10.022;2023-11-21T02:26:59;11.10;;;6.20;;
20454;SDS011;10386;54.314;10.022;2023-11-21T02:29:26;12.17;;;6.80;;
20454;SDS011;10386;54.314;10.022;2023-11-21T02:31:56;10.10;;;6.30;;
20454;SDS011;10386;54.314;10.022;2023-11-21T02:34:23;11.37;;;6.53;;
20454;SDS011;10386;54.314;10.022;2023-11-21T02:36:51;13.70;;;6.40;;
20454;SDS011;10386;54.314;10.022;2023-11-21T02:39:18;13.47;;;7.20;;
20454;SDS011;10386;54.314;10.022;2023-11-21T02:41:48;11.87;;;7.23;;
20454;SDS011;10386;54.314;10.022;2023-11-21T02:44:15;10.90;;;7.20;;
20454;SDS011;10386;54.314;10.022;2023-11-21T02:46:42;13.23;;;6.87;;
20454;SDS011;10386;54.314;10.022;2023-11-21T02:49:09;12.43;;;6.33;;
20454;SDS011;10386;54.314;10.022;2023-11-21T02:51:39;12.87;;;6.13;;
20454;SDS011;10386;54.314;10.022;2023-11-21T02:54:06;17.20;;;6.70;;
20454;SDS011;10386;54.314;10.022;2023-11-21T02:56:34;10.60;;;6.40;;
20454;SDS011;10386;54.314;10.022;2023-11-21T02:59:01;11.50;;;6.63;;
20454;SDS011;10386;54.314;10.022;2023-11-21T03:01:28;10.93;;;7.07;;
20454;SDS011;10386;54.314;10.022;2023-11-21T03:03:55;17.67;;;7.33;;
20454;SDS011;10386;54.314;10.022;2023-11-21T03:06:24;11.37;;;7.03;;
20454;SDS011;10386;54.314;10.022;2023-11-21T03:08:51;12.40;;;6.93;;
20454;SDS011;10386;54.314;10.022;2023-11-21T03:11:18;12.10;;;6.63;;
20454;SDS011;10386;54.314;10.022;2023-11-21T03:13:45;13.50;;;7.30;;
20454;SDS011;10386;54.314;10.022;2023-11-21T03:16:13;12.70;;;7.23;;
20454;SDS011;10386;54.314;10.022;2023-11-21T03:18:40;12.83;;;7.57;;
20454;SDS011;10386;54.314;10.022;2023-11-21T03:21:07;14.77;;;8.07;;
20454;SDS011;10386;54.314;10.022;2023-11-21T03:23:35;14.27;;;7.50;;
20454;SDS011;10386;54.314;10.022;2023-11-21T03:26:03;15.23;;;8.50;;
20454;SDS011;10386;54.314;10.022;2023-11-21T03:28:30;20.43;;;8.97;;
20454;SDS011;10386;54.314;10.022;2023-11-21T03:30:57;16.57;;;9.60;;
20454;SDS011;10386;54.314;10.022;2023-11-21T03:33:23;15.37;;;8.40;;
20454;SDS011;10386;54.314;10.022;2023-11-21T03:35:50;18.97;;;9.07;;
20454;SDS011;10386;54.314;10.022;2023-11-21T03:38:19;15.33;;;9.13;;
20454;SDS011;10386;54.314;10.022;2023-11-21T03:40:46;16.87;;;9.27;;
20454;SDS011;10386;54.314;10.022;2023-11-21T03:43:14;17.10;;;9.37;;
20454;SDS011;10386;54.314;10.022;2023-11-21T03:45:41;19.00;;;8.77;;
20454;SDS011;10386;54.314;10.022;2023-11-21T03:48:08;15.60;;;8.63;;
20454;SDS011;10386;54.314;10.022;2023-11-21T03:50:35;13.77;;;7.47;;
20454;SDS011;10386;54.314;10.022;2023-11-21T03:53:02;11.70;;;7.57;;
20454;SDS011;10386;54.314;10.022;2023-11-21T03:55:30;12.17;;;7.17;;
20454;SDS011;10386;54.314;10.022;2023-11-21T03:57:58;13.63;;;7.17;;
20454;SDS011;10386;54.314;10.022;2023-11-21T04:00:25;12.20;;;6.37;;
20454;SDS011;10386;54.314;10.022;2023-11-21T04:02:55;11.97;;;5.87;;
20454;SDS011;10386;54.314;10.022;2023-11-21T04:05:22;8.20;;;4.50;;
20454;SDS011;10386;54.314;10.022;2023-11-21T04:07:49;8.00;;;3.90;;
20454;SDS011;10386;54.314;10.022;2023-11-21T04:10:19;6.10;;;4.20;;
20454;SDS011;10386;54.314;10.022;2023-11-21T04:12:47;8.90;;;4.57;;
20454;SDS011;10386;54.314;10.022;2023-11-21T04:15:14;8.03;;;4.10;;
20454;SDS011;10386;54.314;10.022;2023-11-21T04:17:41;6.00;;;3.97;;
20454;SDS011;10386;54.314;10.022;2023-11-21T04:20:09;8.50;;;4.10;;
20454;SDS011;10386;54.314;10.022;2023-11-21T04:22:37;5.53;;;3.43;;
20454;SDS011;10386;54.314;10.022;2023-11-21T04:25:08;6.70;;;3.67;;
20454;SDS011;10386;54.314;10.022;2023-11-21T04:27:38;4.77;;;3.30;;
20454;SDS011;10386;54.314;10.022;2023-11-21T04:30:12;8.60;;;4.20;;
20454;SDS011;10386;54.314;10.022;2023-11-21T04:32:39;6.13;;;4.20;;
20454;SDS011;10386;54.314;10.022;2023-11-21T04:35:06;6.80;;;3.60;;
20454;SDS011;10386;54.314;10.022;2023-11-21T04:37:35;5.03;;;3.90;;
20454;SDS011;10386;54.314;10.022;2023-11-21T04:40:01;5.93;;;3.53;;
20454;SDS011;10386;54.314;10.022;2023-11-21T04:42:34;6.87;;;4.00;;
20454;SDS011;10386;54.314;10.022;2023-11-21T04:45:04;6.27;;;3.30;;
20454;SDS011;10386;54.314;10.022;2023-11-21T04:47:35;5.07;;;3.70;;
20454;SDS011;10386;54.314;10.022;2023-11-21T04:50:03;6.47;;;3.30;;
20454;SDS011;10386;54.314;10.022;2023-11-21T04:52:32;5.57;;;3.37;;
20454;SDS011;10386;54.314;10.022;2023-11-21T04:54:59;10.17;;;3.47;;
20454;SDS011;10386;54.314;10.022;2023-11-21T04:57:28;6.40;;;3.10;;
20454;SDS011;10386;54.314;10.022;2023-11-21T04:59:55;6.37;;;3.10;;
20454;SDS011;10386;54.314;10.022;2023-11-21T05:02:21;6.57;;;3.50;;
20454;SDS011;10386;54.314;10.022;2023-11-21T05:05:01;10.73;;;3.30;;
20454;SDS011;10386;54.314;10.022;2023-11-21T05:07:29;6.27;;;3.27;;
20454;SDS011;10386;54.314;10.022;2023-11-21T05:09:57;5.57;;;3.10;;
20454;SDS011;10386;54.314;10.022;2023-11-21T05:12:24;10.13;;;3.73;;
20454;SDS011;10386;54.314;10.022;2023-11-21T05:14:51;6.80;;;3.50;;
20454;SDS011;10386;54.314;10.022;2023-11-21T05:17:18;8.03;;;3.70;;
20454;SDS011;10386;54.314;10.022;2023-11-21T05:19:45;6.13;;;3.37;;
20454;SDS011;10386;54.314;10.022;2023-11-21T05:22:15;4.57;;;3.20;;
20454;SDS011;10386;54.314;10.022;2023-11-21T05:24:42;4.80;;;3.13;;
20454;SDS011;10386;54.314;10.022;2023-11-21T05:27:09;11.17;;;3.37;;
20454;SDS011;10386;54.314;10.022;2023-11-21T05:29:36;5.90;;;3.40;;
20454;SDS011;10386;54.314;10.022;2023-11-21T05:32:04;7.27;;;3.53;;
20454;SDS011;10386;54.314;10.022;2023-11-21T05:34:31;7.93;;;3.40;;
20454;SDS011;10386;54.314;10.022;2023-11-21T05:36:58;4.17;;;3.07;;
20454;SDS011;10386;54.314;10.022;2023-11-21T05:39:25;3.83;;;3.43;;
20454;SDS011;10386;54.314;10.022;2023-11-21T05:41:52;4.73;;;3.20;;
20454;SDS011;10386;54.314;10.022;2023-11-21T05:44:19;4.83;;;3.20;;
20454;SDS011;10386;54.314;10.022;2023-11-21T05:46:46;4.10;;;3.30;;
20454;SDS011;10386;54.314;10.022;2023-11-21T05:49:12;4.90;;;3.23;;
20454;SDS011;10386;54.314;10.022;2023-11-21T05:51:39;3.93;;;3.17;;
20454;SDS011;10386;54.314;10.022;2023-11-21T05:54:06;4.17;;;3.20;;
20454;SDS011;10386;54.314;10.022;2023-11-21T05:56:34;3.50;;;3.07;;
20454;SDS011;10386;54.314;10.022;2023-11-21T05:59:01;8.77;;;3.60;;
20454;SDS011;10386;54.314;10.022;2023-11-21T06:01:29;5.10;;;3.83;;
20454;SDS011;10386;54.314;10.022;2023-11-21T06:03:56;5.07;;;3.60;;
20454;SDS011;10386;54.314;10.022;2023-11-21T06:06:24;8.37;;;3.43;;
20454;SDS011;10386;54.314;10.022;2023-11-21T06:08:51;6.67;;;3.93;;
20454;SDS011;10386;54.314;10.022;2023-11-21T06:11:18;5.93;;;3.87;;
20454;SDS011;10386;54.314;10.022;2023-11-21T06:13:45;8.97;;;4.10;;
20454;SDS011;10386;54.314;10.022;2023-11-21T06:16:11;5.30;;;4.07;;
20454;SDS011;10386;54.314;10.022;2023-11-21T06:18:42;6.83;;;4.20;;
20454;SDS011;10386;54.314;10.022;2023-11-21T06:21:10;7.90;;;3.87;;
20454;SDS011;10386;54.314;10.022;2023-11-21T06:23:37;7.17;;;4.40;;
20454;SDS011;10386;54.314;10.022;2023-11-21T06:26:04;6.27;;;4.67;;
20454;SDS011;10386;54.314;10.022;2023-11-21T06:28:32;9.20;;;4.20;;
20454;SDS011;10386;54.314;10.022;2023-11-21T06:30:59;10.37;;;4.40;;
20454;SDS011;10386;54.314;10.022;2023-11-21T06:33:31;9.97;;;4.33;;
20454;SDS011;10386;54.314;10.022;2023-11-21T06:35:58;5.60;;;4.13;;
20454;SDS011;10386;54.314;10.022;2023-11-21T06:38:26;7.47;;;4.13;;
20454;SDS011;10386;54.314;10.022;2023-11-21T06:40:54;12.53;;;4.53;;
20454;SDS011;10386;54.314;10.022;2023-11-21T06:43:21;8.53;;;4.27;;
20454;SDS011;10386;54.314;10.022;2023-11-21T06:45:48;9.37;;;4.50;;
20454;SDS011;10386;54.314;10.022;2023-11-21T06:48:15;5.93;;;4.73;;
20454;SDS011;10386;54.314;10.022;2023-11-21T06:50:42;9.87;;;5.77;;
20454;SDS011;10386;54.314;10.022;2023-11-21T06:53:09;14.80;;;5.73;;
20454;SDS011;10386;54.314;10.022;2023-11-21T06:55:36;10.97;;;6.03;;
20454;SDS011;10386;54.314;10.022;2023-11-21T06:58:03;6.77;;;4.83;;
20454;SDS011;10386;54.314;10.022;2023-11-21T07:00:31;11.77;;;6.63;;
20454;SDS011;10386;54.314;10.022;2023-11-21T07:02:59;10.20;;;5.20;;
20454;SDS011;10386;54.314;10.022;2023-11-21T07:05:26;7.70;;;5.20;;
20454;SDS011;10386;54.314;10.022;2023-11-21T07:07:53;13.00;;;7.03;;
20454;SDS011;10386;54.314;10.022;2023-11-21T07:10:20;9.57;;;6.57;;
20454;SDS011;10386;54.314;10.022;2023-11-21T07:12:47;8.03;;;5.07;;
20454;SDS011;10386;54.314;10.022;2023-11-21T07:15:14;7.13;;;4.73;;
20454;SDS011;10386;54.314;10.022;2023-11-21T07:17:41;8.33;;;6.67;;
20454;SDS011;10386;54.314;10.022;2023-11-21T07:20:08;11.23;;;5.77;;
20454;SDS011;10386;54.314;10.022;2023-11-21T07:22:37;9.87;;;4.60;;
20454;SDS011;10386;54.314;10.022;2023-11-21T07:25:04;8.57;;;5.57;;
20454;SDS011;10386;54.314;10.022;2023-11-21T07:27:32;8.20;;;4.87;;
20454;SDS011;10386;54.314;10.022;2023-11-21T07:30:02;7.20;;;4.80;;
20454;SDS011;10386;54.314;10.022;2023-11-21T07:32:34;9.43;;;5.27;;
20454;SDS011;10386;54.314;10.022;2023-11-21T07:35:01;10.73;;;5.23;;
20454;SDS011;10386;54.314;10.022;2023-11-21T07:37:28;6.07;;;4.63;;
20454;SDS011;10386;54.314;10.022;2023-11-21T07:39:55;9.60;;;4.77;;
20454;SDS011;10386;54.314;10.022;2023-11-21T07:42:25;8.77;;;5.20;;
20454;SDS011;10386;54.314;10.022;2023-11-21T07:44:53;10.47;;;5.23;;
20454;SDS011;10386;54.314;10.022;2023-11-21T07:47:20;8.50;;;4.87;;
20454;SDS011;10386;54.314;10.022;2023-11-21T07:49:47;8.87;;;5.30;;
20454;SDS011;10386;54.314;10.022;2023-11-21T07:52:14;8.67;;;4.87;;
20454;SDS011;10386;54.314;10.022;2023-11-21T07:54:42;9.50;;;6.00;;
20454;SDS011;10386;54.314;10.022;2023-11-21T07:57:09;6.53;;;4.57;;
20454;SDS011;10386;54.314;10.022;2023-11-21T07:59:40;9.13;;;4.87;;
20454;SDS011;10386;54.314;10.022;2023-11-21T08:02:07;8.40;;;4.77;;
20454;SDS011;10386;54.314;10.022;2023-11-21T08:04:34;10.33;;;5.40;;
20454;SDS011;10386;54.314;10.022;2023-11-21T08:07:02;9.30;;;5.70;;
20454;SDS011;10386;54.314;10.022;2023-11-21T08:09:30;8.37;;;5.20;;
20454;SDS011;10386;54.314;10.022;2023-11-21T08:11:57;8.13;;;5.20;;
20454;SDS011;10386;54.314;10.022;2023-11-21T08:14:24;6.13;;;4.63;;
20454;SDS011;10386;54.314;10.022;2023-11-21T08:16:51;8.87;;;5.70;;
20454;SDS011;10386;54.314;10.022;2023-11-21T08:19:19;10.40;;;5.50;;
20454;SDS011;10386;54.314;10.022;2023-11-21T08:21:45;10.07;;;5.70;;
20454;SDS011;10386;54.314;10.022;2023-11-21T08:24:12;15.10;;;4.80;;
20454;SDS011;10386;54.314;10.022;2023-11-21T08:26:39;5.70;;;4.33;;
20454;SDS011;10386;54.314;10.022;2023-11-21T08:29:06;4.90;;;4.30;;
20454;SDS011;10386;54.314;10.022;2023-11-21T08:31:33;8.83;;;4.93;;
20454;SDS011;10386;54.314;10.022;2023-11-21T08:34:00;8.43;;;4.90;;
20454;SDS011;10386;54.314;10.022;2023-11-21T08:36:29;5.20;;;4.67;;
20454;SDS011;10386;54.314;10.022;2023-11-21T08:38:58;6.03;;;4.17;;
20454;SDS011;10386;54.314;10.022;2023-11-21T08:41:25;9.53;;;4.37;;
20454;SDS011;10386;54.314;10.022;2023-11-21T08:43:54;6.57;;;4.53;;
20454;SDS011;10386;54.314;10.022;2023-11-21T08:46:21;8.37;;;4.23;;
20454;SDS011;10386;54.314;10.022;2023-11-21T08:48:49;7.27;;;3.97;;
20454;SDS011;10386;54.314;10.022;2023-11-21T08:51:19;6.57;;;4.20;;
20454;SDS011;10386;54.314;10.022;2023-11-21T08:53:45;7.23;;;5.00;;
20454;SDS011;10386;54.314;10.022;2023-11-21T08:56:13;6.23;;;4.13;;
20454;SDS011;10386;54.314;10.022;2023-11-21T08:58:41;6.13;;;4.50;;
20454;SDS011;10386;54.314;10.022;2023-11-21T09:01:08;7.93;;;4.80;;
20454;SDS011;10386;54.314;10.022;2023-11-21T09:03:35;6.73;;;4.43;;
20454;SDS011;10386;54.314;10.022;2023-11-21T09:06:03;8.30;;;4.00;;
20454;SDS011;10386;54.314;10.022;2023-11-21T09:08:31;7.37;;;4.40;;
20454;SDS011;10386;54.314;10.022;2023-11-21T09:10:58;8.20;;;4.40;;
20454;SDS011;10386;54.314;10.022;2023-11-21T09:13:26;5.93;;;4.10;;
20454;SDS011;10386;54.314;10.022;2023-11-21T09:15:53;7.53;;;4.40;;
20454;SDS011;10386;54.314;10.022;2023-11-21T09:18:20;5.87;;;4.13;;
20454;SDS011;10386;54.314;10.022;2023-11-21T09:20:47;6.77;;;4.10;;
20454;SDS011;10386;54.314;10.022;2023-11-21T09:23:15;8.70;;;4.10;;
20454;SDS011;10386;54.314;10.022;2023-11-21T09:25:42;4.93;;;3.63;;
20454;SDS011;10386;54.314;10.022;2023-11-21T09:28:12;10.50;;;3.77;;
20454;SDS011;10386;54.314;10.022;2023-11-21T09:30:39;7.37;;;3.90;;
20454;SDS011;10386;54.314;10.022;2023-11-21T09:33:06;7.33;;;3.90;;
20454;SDS011;10386;54.314;10.022;2023-11-21T09:35:38;4.17;;;3.40;;
20454;SDS011;10386;54.314;10.022;2023-11-21T09:38:05;4.87;;;3.50;;
20454;SDS011;10386;54.314;10.022;2023-11-21T09:40:38;6.70;;;4.07;;
20454;SDS011;10386;54.314;10.022;2023-11-21T09:43:09;10.73;;;4.33;;
20454;SDS011;10386;54.314;10.022;2023-11-21T09:45:50;5.83;;;4.43;;
20454;SDS011;10386;54.314;10.022;2023-11-21T09:48:24;8.20;;;3.80;;
20454;SDS011;10386;54.314;10.022;2023-11-21T09:50:53;6.63;;;3.83;;
20454;SDS011;10386;54.314;10.022;2023-11-21T09:53:21;6.43;;;3.57;;
20454;SDS011;10386;54.314;10.022;2023-11-21T09:55:52;5.87;;;3.63;;
20454;SDS011;10386;54.314;10.022;2023-11-21T09:58:20;8.20;;;3.73;;
20454;SDS011;10386;54.314;10.022;2023-11-21T10:00:54;5.03;;;3.53;;
20454;SDS011;10386;54.314;10.022;2023-11-21T10:03:25;7.53;;;3.90;;
20454;SDS011;10386;54.314;10.022;2023-11-21T10:05:53;7.20;;;4.00;;
20454;SDS011;10386;54.314;10.022;2023-11-21T10:08:24;6.97;;;3.83;;
20454;SDS011;10386;54.314;10.022;2023-11-21T10:11:12;5.57;;;3.57;;
20454;SDS011;10386;54.314;10.022;2023-11-21T10:13:42;6.13;;;3.97;;
20454;SDS011;10386;54.314;10.022;2023-11-21T10:16:14;4.27;;;3.40;;
20454;SDS011;10386;54.314;10.022;2023-11-21T10:18:48;4.73;;;3.33;;
20454;SDS011;10386;54.314;10.022;2023-11-21T10:21:37;7.70;;;4.00;;
20454;SDS011;10386;54.314;10.022;2023-11-21T10:24:05;5.83;;;3.67;;
20454;SDS011;10386;54.314;10.022;2023-11-21T10:26:33;5.27;;;3.77;;
20454;SDS011;10386;54.314;10.022;2023-11-21T10:29:16;4.67;;;3.50;;
20454;SDS011;10386;54.314;10.022;2023-11-21T10:31:44;5.70;;;3.50;;
20454;SDS011;10386;54.314;10.022;2023-11-21T10:34:12;6.50;;;3.70;;
20454;SDS011;10386;54.314;10.022;2023-11-21T10:36:43;4.37;;;2.70;;
20454;SDS011;10386;54.314;10.022;2023-11-21T10:39:16;4.33;;;3.30;;
20454;SDS011;10386;54.314;10.022;2023-11-21T10:41:47;5.30;;;3.77;;
20454;SDS011;10386;54.314;10.022;2023-11-21T10:44:15;6.53;;;4.07;;
20454;SDS011;10386;54.314;10.022;2023-11-21T10:46:51;7.03;;;4.03;;
20454;SDS011;10386;54.314;10.022;2023-11-21T10:49:24;4.87;;;3.43;;
20454;SDS011;10386;54.314;10.022;2023-11-21T10:51:52;8.00;;;3.67;;
20454;SDS011;10386;54.314;10.022;2023-11-21T10:54:20;4.73;;;3.50;;
20454;SDS011;10386;54.314;10.022;2023-11-21T10:56:58;5.93;;;3.90;;
20454;SDS011;10386;54.314;10.022;2023-11-21T10:59:29;6.80;;;4.27;;
20454;SDS011;10386;54.314;10.022;2023-11-21T11:01:59;7.50;;;3.90;;
20454;SDS011;10386;54.314;10.022;2023-11-21T11:04:30;4.60;;;3.50;;
20454;SDS011;10386;54.314;10.022;2023-11-21T11:06:58;5.57;;;3.30;;
20454;SDS011;10386;54.314;10.022;2023-11-21T11:09:32;5.90;;;4.10;;
20454;SDS011;10386;54.314;10.022;2023-11-21T11:12:03;8.23;;;4.10;;
20454;SDS011;10386;54.314;10.022;2023-11-21T11:14:31;9.30;;;4.00;;
20454;SDS011;10386;54.314;10.022;2023-11-21T11:16:59;4.93;;;3.23;;
20454;SDS011;10386;54.314;10.022;2023-11-21T11:19:27;8.43;;;3.80;;
20454;SDS011;10386;54.314;10.022;2023-11-21T11:30:00;4.30;;;3.37;;
20454;SDS011;10386;54.314;10.022;2023-11-21T11:35:38;5.10;;;3.10;;
20454;SDS011;10386;54.314;10.022;2023-11-21T11:38:17;6.10;;;3.30;;
20454;SDS011;10386;54.314;10.022;2023-11-21T11:40:45;3.70;;;2.87;;
20454;SDS011;10386;54.314;10.022;2023-11-21T11:43:12;5.60;;;3.33;;
20454;SDS011;10386;54.314;10.022;2023-11-21T11:45:39;6.00;;;2.90;;
20454;SDS011;10386;54.314;10.022;2023-11-21T11:48:10;4.13;;;3.20;;
20454;SDS011;10386;54.314;10.022;2023-11-21T11:53:36;5.53;;;3.87;;
20454;SDS011;10386;54.314;10.022;2023-11-21T11:58:49;5.83;;;3.67;;
20454;SDS011;10386;54.314;10.022;2023-11-21T12:01:20;5.97;;;3.77;;
20454;SDS011;10386;54.314;10.022;2023-11-21T12:06:41;8.83;;;3.67;;
20454;SDS011;10386;54.314;10.022;2023-11-21T12:09:18;15.07;;;8.50;;
20454;SDS011;10386;54.314;10.022;2023-11-21T12:11:48;7.00;;;4.23;;
20454;SDS011;10386;54.314;10.022;2023-11-21T12:14:15;5.87;;;3.80;;
20454;SDS011;10386;54.314;10.022;2023-11-21T12:16:42;7.33;;;3.63;;
20454;SDS011;10386;54.314;10.022;2023-11-21T12:19:12;12.23;;;5.90;;
20454;SDS011;10386;54.314;10.022;2023-11-21T12:21:40;6.43;;;3.73;;
20454;SDS011;10386;54.314;10.022;2023-11-21T12:24:10;6.10;;;3.87;;
20454;SDS011;10386;54.314;10.022;2023-11-21T12:26:41;6.00;;;4.03;;
20454;SDS011;10386;54.314;10.022;2023-11-21T12:29:08;6.27;;;4.70;;
20454;SDS011;10386;54.314;10.022;2023-11-21T12:31:35;8.20;;;4.13;;
20454;SDS011;10386;54.314;10.022;2023-11-21T12:34:02;7.37;;;4.10;;
20454;SDS011;10386;54.314;10.022;2023-11-21T12:36:30;7.20;;;3.50;;
20454;SDS011;10386;54.314;10.022;2023-11-21T12:38:58;5.00;;;3.87;;
20454;SDS011;10386;54.314;10.022;2023-11-21T12:41:25;8.80;;;3.47;;
20454;SDS011;10386;54.314;10.022;2023-11-21T12:43:52;11.03;;;3.90;;
20454;SDS011;10386;54.314;10.022;2023-11-21T12:46:19;5.40;;;3.20;;
20454;SDS011;10386;54.314;10.022;2023-11-21T12:48:47;9.10;;;3.70;;
20454;SDS011;10386;54.314;10.022;2023-11-21T12:51:14;4.20;;;3.17;;
20454;SDS011;10386;54.314;10.022;2023-11-21T12:53:42;6.00;;;3.40;;
20454;SDS011;10386;54.314;10.022;2023-11-21T12:56:13;7.70;;;3.33;;
20454;SDS011;10386;54.314;10.022;2023-11-21T12:58:43;8.17;;;4.37;;
20454;SDS011;10386;54.314;10.022;2023-11-21T13:01:13;7.33;;;4.73;;
20454;SDS011;10386;54.314;10.022;2023-11-21T13:03:48;8.20;;;4.60;;
20454;SDS011;10386;54.314;10.022;2023-11-21T13:06:18;7.17;;;3.57;;
20454;SDS011;10386;54.314;10.022;2023-11-21T13:08:46;8.40;;;4.20;;
20454;SDS011;10386;54.314;10.022;2023-11-21T13:11:13;6.13;;;3.10;;
20454;SDS011;10386;54.314;10.022;2023-11-21T13:13:42;4.17;;;3.47;;
20454;SDS011;10386;54.314;10.022;2023-11-21T13:16:10;3.47;;;3.10;;
20454;SDS011;10386;54.314;10.022;2023-11-21T13:18:37;3.77;;;2.80;;
20454;SDS011;10386;54.314;10.022;2023-11-21T13:21:07;7.03;;;4.33;;
20454;SDS011;10386;54.314;10.022;2023-11-21T13:23:42;5.80;;;3.90;;
20454;SDS011;10386;54.314;10.022;2023-11-21T13:26:09;3.17;;;2.87;;
20454;SDS011;10386;54.314;10.022;2023-11-21T13:28:37;7.43;;;3.40;;
20454;SDS011;10386;54.314;10.022;2023-11-21T13:31:05;3.70;;;2.83;;
20454;SDS011;10386;54.314;10.022;2023-11-21T13:33:40;3.73;;;3.03;;
20454;SDS011;10386;54.314;10.022;2023-11-21T13:36:09;5.17;;;3.00;;
20454;SDS011;10386;54.314;10.022;2023-11-21T13:38:37;4.93;;;2.80;;
20454;SDS011;10386;54.314;10.022;2023-11-21T13:41:09;7.23;;;3.20;;
20454;SDS011;10386;54.314;10.022;2023-11-21T13:43:38;6.63;;;2.97;;
20454;SDS011;10386;54.314;10.022;2023-11-21T13:46:06;4.57;;;3.33;;
20454;SDS011;10386;54.314;10.022;2023-11-21T13:48:40;8.67;;;3.27;;
20454;SDS011;10386;54.314;10.022;2023-11-21T13:51:09;8.73;;;3.03;;
20454;SDS011;10386;54.314;10.022;2023-11-21T13:53:47;5.47;;;3.27;;
20454;SDS011;10386;54.314;10.022;2023-11-21T13:56:17;7.13;;;3.10;;
20454;SDS011;10386;54.314;10.022;2023-11-21T13:58:55;6.30;;;3.40;;
20454;SDS011;10386;54.314;10.022;2023-11-21T14:01:23;6.13;;;2.80;;
20454;SDS011;10386;54.314;10.022;2023-11-21T14:04:01;3.50;;;2.90;;
20454;SDS011;10386;54.314;10.022;2023-11-21T14:06:45;5.47;;;3.47;;
20454;SDS011;10386;54.314;10.022;2023-11-21T14:09:18;5.03;;;3.10;;
20454;SDS011;10386;54.314;10.022;2023-11-21T14:11:51;5.80;;;3.30;;
20454;SDS011;10386;54.314;10.022;2023-11-21T14:14:21;4.80;;;3.07;;
20454;SDS011;10386;54.314;10.022;2023-11-21T14:16:51;5.77;;;3.17;;
20454;SDS011;10386;54.314;10.022;2023-11-21T14:19:19;6.90;;;3.73;;
20454;SDS011;10386;54.314;10.022;2023-11-21T14:21:46;6.70;;;3.50;;
20454;SDS011;10386;54.314;10.022;2023-11-21T14:24:15;3.87;;;3.00;;
20454;SDS011;10386;54.314;10.022;2023-11-21T14:26:45;6.20;;;3.60;;
20454;SDS011;10386;54.314;10.022;2023-11-21T14:29:13;3.40;;;3.03;;
20454;SDS011;10386;54.314;10.022;2023-11-21T14:31:46;5.07;;;3.20;;
20454;SDS011;10386;54.314;10.022;2023-11-21T14:34:14;6.30;;;3.20;;
20454;SDS011;10386;54.314;10.022;2023-11-21T14:36:46;10.33;;;3.30;;
20454;SDS011;10386;54.314;10.022;2023-11-21T14:39:13;4.80;;;3.40;;
20454;SDS011;10386;54.314;10.022;2023-11-21T14:41:51;7.40;;;3.37;;
20454;SDS011;10386;54.314;10.022;2023-11-21T14:44:25;5.67;;;3.13;;
20454;SDS011;10386;54.314;10.022;2023-11-21T14:46:54;4.93;;;3.30;;
20454;SDS011;10386;54.314;10.022;2023-11-21T14:49:24;7.47;;;3.67;;
20454;SDS011;10386;54.314;10.022;2023-11-21T14:51:54;18.10;;;8.20;;
20454;SDS011;10386;54.314;10.022;2023-11-21T14:54:30;21.20;;;7.80;;
20454;SDS011;10386;54.314;10.022;2023-11-21T14:57:12;41.60;;;12.97;;
20454;SDS011;10386;54.314;10.022;2023-11-21T14:59:43;11.50;;;5.20;;